createdAt,value
2023-10-23T00:01:10.645Z,1.90
2023-10-23T00:03:37.391Z,1.60
2023-10-23T00:06:04.313Z,1.60
2023-10-23T00:08:30.755Z,1.83
2023-10-23T00:10:57.234Z,1.80
2023-10-23T00:13:23.708Z,2.10
2023-10-23T00:15:50.196Z,1.90
2023-10-23T00:18:16.695Z,2.00
2023-10-23T00:20:43.394Z,1.85
2023-10-23T00:23:10.020Z,2.00
2023-10-23T00:25:36.615Z,1.67
2023-10-23T00:28:03.096Z,1.63
2023-10-23T00:30:33.302Z,1.50
2023-10-23T00:32:59.907Z,1.50
2023-10-23T00:35:26.428Z,1.80
2023-10-23T00:37:52.854Z,1.65
2023-10-23T00:40:19.317Z,1.50
2023-10-23T00:42:45.811Z,1.63
2023-10-23T00:45:12.327Z,1.65
2023-10-23T00:47:38.801Z,1.58
2023-10-23T00:50:05.612Z,1.70
2023-10-23T00:52:32.217Z,1.38
2023-10-23T00:54:59.505Z,1.42
2023-10-23T00:57:26.228Z,1.55
2023-10-23T00:59:55.085Z,1.63
2023-10-23T01:02:21.639Z,1.70
2023-10-23T01:04:48.529Z,1.90
2023-10-23T01:07:14.971Z,1.65
2023-10-23T01:09:41.524Z,1.80
2023-10-23T01:12:08.061Z,1.80
2023-10-23T01:14:34.551Z,1.55
2023-10-23T01:17:00.988Z,1.52
2023-10-23T01:19:27.507Z,1.80
2023-10-23T01:21:53.991Z,2.20
2023-10-23T01:24:22.991Z,1.80
2023-10-23T01:26:49.680Z,1.65
2023-10-23T01:29:16.706Z,1.90
2023-10-23T01:31:43.227Z,1.88
2023-10-23T01:34:09.714Z,1.77
2023-10-23T01:36:36.977Z,2.10
2023-10-23T01:39:03.801Z,1.90
2023-10-23T01:41:30.291Z,1.92
2023-10-23T01:43:56.813Z,2.28
2023-10-23T01:46:23.315Z,1.90
2023-10-23T01:48:49.864Z,1.90
2023-10-23T01:51:16.434Z,1.95
2023-10-23T01:53:42.897Z,2.15
2023-10-23T01:56:12.268Z,1.58
2023-10-23T01:58:38.737Z,1.88
2023-10-23T02:01:05.317Z,1.90
2023-10-23T02:03:33.017Z,2.00
2023-10-23T02:05:59.834Z,2.00
2023-10-23T02:08:26.352Z,2.72
2023-10-23T02:10:53.456Z,2.30
2023-10-23T02:13:20.524Z,1.80
2023-10-23T02:15:47.164Z,2.00
2023-10-23T02:18:13.719Z,1.88
2023-10-23T02:20:40.280Z,2.00
2023-10-23T02:23:06.753Z,1.90
2023-10-23T02:25:33.186Z,2.00
2023-10-23T02:27:59.705Z,1.70
2023-10-23T02:30:26.329Z,1.48
2023-10-23T02:32:52.890Z,1.70
2023-10-23T02:35:19.360Z,1.67
2023-10-23T02:37:45.857Z,1.70
2023-10-23T02:40:12.976Z,1.77
2023-10-23T02:42:39.471Z,1.80
2023-10-23T02:45:06.920Z,1.88
2023-10-23T02:47:33.369Z,1.58
2023-10-23T02:49:59.909Z,1.73
2023-10-23T02:52:26.889Z,1.98
2023-10-23T02:54:53.418Z,1.63
2023-10-23T02:57:20.046Z,1.92
2023-10-23T02:59:48.208Z,1.77
2023-10-23T03:02:15.932Z,1.70
2023-10-23T03:04:42.477Z,1.40
2023-10-23T03:07:09.465Z,1.50
2023-10-23T03:09:36.502Z,1.50
2023-10-23T03:12:03.661Z,1.42
2023-10-23T03:14:30.224Z,1.70
2023-10-23T03:16:56.738Z,1.50
2023-10-23T03:19:23.676Z,1.80
2023-10-23T03:21:50.984Z,1.50
2023-10-23T03:24:17.441Z,1.70
2023-10-23T03:26:43.870Z,1.40
2023-10-23T03:29:10.412Z,1.45
2023-10-23T03:31:36.889Z,1.30
2023-10-23T03:34:03.370Z,1.50
2023-10-23T03:36:29.974Z,1.27
2023-10-23T03:38:56.676Z,1.08
2023-10-23T03:41:23.181Z,1.30
2023-10-23T03:43:49.605Z,1.60
2023-10-23T03:46:16.121Z,1.30
2023-10-23T03:48:43.707Z,1.48
2023-10-23T03:51:10.355Z,1.40
2023-10-23T03:53:36.811Z,1.40
2023-10-23T03:56:07.228Z,1.40
2023-10-23T03:58:33.701Z,1.40
2023-10-23T04:01:01.257Z,1.60
2023-10-23T04:03:27.863Z,1.17
2023-10-23T04:05:54.420Z,1.42
2023-10-23T04:08:21.032Z,1.45
2023-10-23T04:10:49.037Z,1.33
2023-10-23T04:13:16.560Z,1.20
2023-10-23T04:15:55.760Z,1.60
2023-10-23T04:18:22.653Z,1.25
2023-10-23T04:20:49.114Z,1.08
2023-10-23T04:23:15.618Z,1.55
2023-10-23T04:25:42.184Z,1.60
2023-10-23T04:28:08.654Z,1.60
2023-10-23T04:30:35.184Z,1.60
2023-10-23T04:33:08.921Z,1.58
2023-10-23T04:35:35.403Z,1.45
2023-10-23T04:38:03.872Z,1.58
2023-10-23T04:40:30.288Z,1.88
2023-10-23T04:42:56.784Z,1.75
2023-10-23T04:45:35.773Z,1.30
2023-10-23T04:48:02.340Z,1.90
2023-10-23T04:50:31.844Z,1.83
2023-10-23T04:53:08.411Z,1.98
2023-10-23T04:55:35.818Z,1.55
2023-10-23T04:58:03.028Z,1.50
2023-10-23T05:00:30.775Z,1.60
2023-10-23T05:02:57.350Z,2.30
2023-10-23T05:05:24.179Z,2.08
2023-10-23T05:07:50.618Z,2.10
2023-10-23T05:10:17.148Z,1.90
2023-10-23T05:12:46.243Z,1.80
2023-10-23T05:15:15.062Z,1.80
2023-10-23T05:17:42.775Z,1.85
2023-10-23T05:20:09.701Z,1.90
2023-10-23T05:22:36.187Z,1.73
2023-10-23T05:25:04.115Z,1.40
2023-10-23T05:27:30.673Z,1.45
2023-10-23T05:29:57.166Z,1.63
2023-10-23T05:32:23.649Z,1.40
2023-10-23T05:34:50.136Z,1.70
2023-10-23T05:37:16.610Z,1.80
2023-10-23T05:39:43.173Z,1.60
2023-10-23T05:42:09.658Z,1.70
2023-10-23T05:44:36.117Z,1.60
2023-10-23T05:47:02.584Z,1.48
2023-10-23T05:49:29.383Z,1.30
2023-10-23T05:51:55.874Z,1.30
2023-10-23T05:54:22.396Z,1.70
2023-10-23T05:56:48.948Z,1.95
2023-10-23T05:59:15.457Z,2.45
2023-10-23T06:01:41.919Z,2.38
2023-10-23T06:04:08.562Z,2.20
2023-10-23T06:06:35.307Z,2.97
2023-10-23T06:09:01.832Z,2.28
2023-10-23T06:11:28.285Z,1.95
2023-10-23T06:13:55.091Z,2.30
2023-10-23T06:16:22.042Z,2.55
2023-10-23T06:18:48.917Z,1.98
2023-10-23T06:21:15.496Z,2.15
2023-10-23T06:23:42.339Z,2.03
2023-10-23T06:26:09.398Z,1.60
2023-10-23T06:28:37.200Z,1.88
2023-10-23T06:31:11.874Z,1.80
2023-10-23T06:33:40.239Z,1.85
2023-10-23T06:36:10.402Z,1.67
2023-10-23T06:38:37.853Z,1.70
2023-10-23T06:41:08.612Z,1.50
2023-10-23T06:43:37.328Z,1.48
2023-10-23T06:46:07.521Z,1.83
2023-10-23T06:48:34.187Z,1.70
2023-10-23T06:51:00.888Z,1.90
2023-10-23T06:53:27.442Z,1.95
2023-10-23T06:55:55.324Z,2.10
2023-10-23T06:58:23.147Z,2.33
2023-10-23T07:00:49.903Z,2.10
2023-10-23T07:03:16.693Z,2.30
2023-10-23T07:05:43.468Z,2.40
2023-10-23T07:08:10.222Z,2.50
2023-10-23T07:10:38.183Z,4.15
2023-10-23T07:13:15.019Z,2.70
2023-10-23T07:15:48.419Z,2.60
2023-10-23T07:18:14.951Z,2.30
2023-10-23T07:20:41.568Z,2.50
2023-10-23T07:23:08.059Z,2.50
2023-10-23T07:25:34.520Z,2.70
2023-10-23T07:28:00.963Z,2.30
2023-10-23T07:30:27.529Z,2.20
2023-10-23T07:32:54.175Z,2.00
2023-10-23T07:35:21.459Z,1.75
2023-10-23T07:37:47.967Z,1.83
2023-10-23T07:40:14.489Z,1.75
2023-10-23T07:42:41.040Z,1.90
2023-10-23T07:45:09.718Z,1.70
2023-10-23T07:47:36.322Z,1.48
2023-10-23T07:50:03.001Z,1.70
2023-10-23T07:52:29.418Z,1.50
2023-10-23T07:54:56.543Z,1.50
2023-10-23T07:57:22.971Z,1.20
2023-10-23T07:59:50.443Z,1.15
2023-10-23T08:02:17.352Z,1.10
2023-10-23T08:04:44.049Z,1.42
2023-10-23T08:07:10.791Z,1.83
2023-10-23T08:09:37.475Z,1.63
2023-10-23T08:12:04.975Z,1.38
2023-10-23T08:14:31.378Z,1.55
2023-10-23T08:16:58.066Z,1.30
2023-10-23T08:19:24.684Z,1.20
2023-10-23T08:21:53.570Z,1.52
2023-10-23T08:24:20.159Z,1.50
2023-10-23T08:26:46.627Z,1.55
2023-10-23T08:29:15.609Z,0.98
2023-10-23T08:31:43.301Z,1.20
2023-10-23T08:34:10.162Z,1.13
2023-10-23T08:36:37.074Z,1.00
2023-10-23T08:39:04.365Z,0.70
2023-10-23T08:41:31.921Z,0.60
2023-10-23T08:43:58.530Z,0.50
2023-10-23T08:46:33.777Z,0.43
2023-10-23T08:49:04.844Z,0.57
2023-10-23T08:51:32.476Z,0.68
2023-10-23T08:54:13.470Z,0.82
2023-10-23T08:56:42.598Z,0.80
2023-10-23T08:59:15.153Z,1.00
2023-10-23T09:01:42.061Z,1.05
2023-10-23T09:04:11.683Z,0.88
2023-10-23T09:06:40.301Z,1.40
2023-10-23T09:09:07.509Z,0.80
2023-10-23T09:11:48.236Z,0.80
2023-10-23T09:14:27.880Z,0.68
2023-10-23T09:16:56.838Z,0.85
2023-10-23T09:19:37.504Z,0.88
2023-10-23T09:22:05.786Z,1.00
2023-10-23T09:24:32.424Z,0.80
2023-10-23T09:26:59.122Z,0.80
2023-10-23T09:29:26.832Z,1.15
2023-10-23T09:31:55.353Z,1.23
2023-10-23T09:34:22.590Z,0.90
2023-10-23T09:36:51.609Z,0.90
2023-10-23T09:39:19.529Z,0.80
2023-10-23T09:41:46.912Z,0.90
2023-10-23T09:44:16.973Z,0.80
2023-10-23T09:46:43.637Z,0.68
2023-10-23T09:49:11.369Z,0.85
2023-10-23T09:51:42.602Z,1.10
2023-10-23T09:54:22.422Z,1.10
2023-10-23T09:56:53.149Z,1.02
2023-10-23T09:59:25.551Z,1.17
2023-10-23T10:01:56.031Z,0.93
2023-10-23T10:04:30.747Z,0.85
2023-10-23T10:07:08.710Z,0.90
2023-10-23T10:09:36.154Z,1.00
2023-10-23T10:12:04.801Z,1.05
2023-10-23T10:14:32.602Z,0.80
2023-10-23T10:17:00.936Z,0.88
2023-10-23T10:19:28.366Z,1.00
2023-10-23T10:22:11.507Z,1.00
2023-10-23T10:24:39.220Z,0.95
2023-10-23T10:27:06.141Z,0.90
2023-10-23T10:29:32.973Z,0.70
2023-10-23T10:32:11.272Z,1.20
2023-10-23T10:34:55.633Z,0.75
2023-10-23T10:37:30.972Z,0.82
2023-10-23T10:39:57.593Z,2.45
2023-10-23T10:42:26.104Z,1.35
2023-10-23T10:44:53.627Z,0.70
2023-10-23T10:47:21.131Z,0.80
2023-10-23T10:49:48.718Z,0.63
2023-10-23T10:52:39.621Z,0.70
2023-10-23T10:55:10.899Z,0.80
2023-10-23T10:57:43.137Z,1.00
2023-10-23T11:00:14.045Z,0.90
2023-10-23T11:02:41.009Z,0.90
2023-10-23T11:05:12.216Z,0.60
2023-10-23T11:07:39.136Z,0.70
2023-10-23T11:10:06.307Z,0.95
2023-10-23T11:12:33.400Z,0.80
2023-10-23T11:15:01.993Z,0.95
2023-10-23T11:17:29.901Z,1.08
2023-10-23T11:19:57.146Z,1.02
2023-10-23T11:22:25.076Z,2.33
2023-10-23T11:24:51.744Z,1.10
2023-10-23T11:27:18.293Z,0.80
2023-10-23T11:29:46.712Z,0.70
2023-10-23T11:32:14.840Z,0.80
2023-10-23T11:34:41.905Z,0.75
2023-10-23T11:37:10.156Z,0.90
2023-10-23T11:39:38.596Z,0.88
2023-10-23T11:42:06.348Z,1.10
2023-10-23T11:44:37.142Z,0.98
2023-10-23T11:47:08.837Z,1.25
2023-10-23T11:49:35.765Z,1.27
2023-10-23T11:52:03.785Z,0.90
2023-10-23T11:54:30.813Z,0.90
2023-10-23T11:56:59.456Z,1.00
2023-10-23T11:59:26.968Z,0.80
2023-10-23T12:01:57.816Z,1.20
2023-10-23T12:04:24.598Z,1.25
2023-10-23T12:06:51.375Z,0.98
2023-10-23T12:09:18.084Z,0.90
2023-10-23T12:11:44.537Z,0.93
2023-10-23T12:14:11.009Z,0.82
2023-10-23T12:16:37.690Z,0.93
2023-10-23T12:19:05.610Z,0.93
2023-10-23T12:21:33.011Z,0.93
2023-10-23T12:23:59.495Z,0.90
2023-10-23T12:26:26.768Z,1.02
2023-10-23T12:28:53.274Z,1.20
2023-10-23T12:31:23.934Z,0.70
2023-10-23T12:33:52.185Z,0.80
2023-10-23T12:36:19.011Z,0.90
2023-10-23T12:38:45.487Z,0.80
2023-10-23T12:41:12.612Z,0.93
2023-10-23T12:43:39.155Z,0.93
2023-10-23T12:46:05.753Z,1.00
2023-10-23T12:48:32.277Z,1.08
2023-10-23T12:50:59.050Z,1.00
2023-10-23T12:53:25.751Z,1.10
2023-10-23T12:55:52.424Z,0.98
2023-10-23T12:58:18.902Z,0.90
2023-10-23T13:00:46.544Z,1.08
2023-10-23T13:03:13.109Z,1.00
2023-10-23T13:05:39.915Z,1.10
2023-10-23T13:08:06.377Z,0.90
2023-10-23T13:10:33.092Z,0.82
2023-10-23T13:13:01.632Z,0.80
2023-10-23T13:15:28.363Z,1.00
2023-10-23T13:17:57.006Z,0.85
2023-10-23T13:21:28.108Z,1.00
2023-10-23T13:23:10.463Z,1.02
2023-10-23T13:25:38.648Z,1.15
2023-10-23T13:28:06.103Z,0.85
2023-10-23T13:30:32.897Z,1.00
2023-10-23T13:33:00.129Z,1.02
2023-10-23T13:35:26.672Z,0.80
2023-10-23T13:37:53.124Z,1.10
2023-10-23T13:40:19.685Z,1.10
2023-10-23T13:42:47.244Z,0.98
2023-10-23T13:45:15.842Z,1.00
2023-10-23T13:47:43.959Z,1.00
2023-10-23T13:50:11.517Z,1.15
2023-10-23T13:52:37.991Z,1.42
2023-10-23T13:55:04.929Z,0.77
2023-10-23T13:57:31.400Z,1.20
2023-10-23T13:59:57.820Z,1.13
2023-10-23T14:02:24.402Z,1.20
2023-10-23T14:04:51.088Z,1.00
2023-10-23T14:07:17.683Z,0.98
2023-10-23T14:09:47.136Z,1.10
2023-10-23T14:12:17.129Z,1.27
2023-10-23T14:14:43.706Z,1.30
2023-10-23T14:17:10.533Z,1.25
2023-10-23T14:19:46.364Z,1.38
2023-10-23T14:22:14.980Z,1.00
2023-10-23T14:24:41.803Z,1.00
2023-10-23T14:27:08.415Z,1.17
2023-10-23T14:29:35.662Z,1.20
2023-10-23T14:32:04.279Z,1.10
2023-10-23T14:34:30.865Z,1.10
2023-10-23T14:36:57.431Z,1.00
2023-10-23T14:39:28.174Z,1.13
2023-10-23T14:41:54.877Z,1.20
2023-10-23T14:44:21.757Z,1.30
2023-10-23T14:46:51.927Z,1.20
2023-10-23T14:49:18.715Z,1.02
2023-10-23T14:51:45.230Z,1.00
2023-10-23T14:54:11.796Z,1.10
2023-10-23T14:56:38.473Z,1.17
2023-10-23T14:59:05.495Z,1.15
2023-10-23T15:01:32.125Z,0.98
2023-10-23T15:04:01.341Z,0.98
2023-10-23T15:06:28.167Z,1.00
2023-10-23T15:08:54.737Z,1.00
2023-10-23T15:11:25.547Z,1.13
2023-10-23T15:13:54.027Z,1.13
2023-10-23T15:16:20.923Z,1.38
2023-10-23T15:18:47.481Z,1.65
2023-10-23T15:21:15.893Z,1.90
2023-10-23T15:23:42.575Z,1.90
2023-10-23T15:26:10.077Z,2.22
2023-10-23T15:28:37.350Z,2.00
2023-10-23T15:31:06.329Z,1.20
2023-10-23T15:33:36.369Z,1.65
2023-10-23T15:36:03.641Z,1.75
2023-10-23T15:38:31.013Z,2.08
2023-10-23T15:41:09.097Z,1.65
2023-10-23T15:43:37.218Z,1.40
2023-10-23T15:46:04.374Z,1.30
2023-10-23T15:48:31.405Z,1.30
2023-10-23T15:50:59.626Z,0.98
2023-10-23T15:53:31.095Z,1.40
2023-10-23T15:55:58.047Z,1.02
2023-10-23T15:58:25.172Z,1.38
2023-10-23T16:00:53.147Z,1.27
2023-10-23T16:03:19.961Z,1.20
2023-10-23T16:05:46.524Z,1.30
2023-10-23T16:08:13.092Z,1.38
2023-10-23T16:10:51.069Z,1.60
2023-10-23T16:13:19.295Z,1.42
2023-10-23T16:15:47.109Z,1.48
2023-10-23T16:18:16.074Z,1.38
2023-10-23T16:20:45.441Z,1.23
2023-10-23T16:23:12.367Z,1.30
2023-10-23T16:25:43.439Z,1.10
2023-10-23T16:28:11.052Z,1.20
2023-10-23T16:30:39.191Z,1.35
2023-10-23T16:33:05.873Z,1.20
2023-10-23T16:35:35.165Z,1.77
2023-10-23T16:38:01.753Z,1.67
2023-10-23T16:40:28.327Z,2.50
2023-10-23T16:42:54.863Z,2.03
2023-10-23T16:45:21.873Z,2.10
2023-10-23T16:47:48.406Z,1.80
2023-10-23T16:50:14.972Z,2.33
2023-10-23T16:52:45.830Z,1.90
2023-10-23T16:55:12.461Z,1.88
2023-10-23T16:57:38.968Z,1.80
2023-10-23T17:00:06.541Z,1.70
2023-10-23T17:02:33.473Z,1.80
2023-10-23T17:05:00.116Z,1.70
2023-10-23T17:07:26.734Z,1.52
2023-10-23T17:09:53.395Z,1.55
2023-10-23T17:12:19.905Z,1.70
2023-10-23T17:14:47.470Z,1.70
2023-10-23T17:17:13.919Z,1.95
2023-10-23T17:19:42.460Z,1.90
2023-10-23T17:22:09.456Z,1.70
2023-10-23T17:24:49.919Z,2.25
2023-10-23T17:27:16.393Z,2.08
2023-10-23T17:29:43.765Z,2.38
2023-10-23T17:32:10.679Z,2.60
2023-10-23T17:34:38.502Z,2.20
2023-10-23T17:37:07.331Z,2.28
2023-10-23T17:39:33.830Z,2.60
2023-10-23T17:42:01.032Z,2.55
2023-10-23T17:44:27.526Z,2.70
2023-10-23T17:46:54.699Z,2.40
2023-10-23T17:49:23.148Z,2.22
2023-10-23T17:51:50.673Z,2.75
2023-10-23T17:54:17.234Z,2.97
2023-10-23T17:56:43.729Z,2.67
2023-10-23T17:59:10.282Z,2.95
2023-10-23T18:01:36.996Z,2.70
2023-10-23T18:04:04.085Z,3.00
2023-10-23T18:06:31.809Z,2.53
2023-10-23T18:08:59.100Z,2.50
2023-10-23T18:11:25.997Z,2.40
2023-10-23T18:13:53.426Z,2.40
2023-10-23T18:16:20.053Z,2.88
2023-10-23T18:18:46.606Z,2.97
2023-10-23T18:21:13.059Z,3.10
2023-10-23T18:23:39.566Z,3.30
2023-10-23T18:26:06.135Z,2.75
2023-10-23T18:28:32.904Z,3.17
2023-10-23T18:31:01.526Z,2.95
2023-10-23T18:33:28.042Z,3.60
2023-10-23T18:36:01.351Z,3.78
2023-10-23T18:38:28.698Z,3.38
2023-10-23T18:40:56.570Z,3.20
2023-10-23T18:43:28.263Z,3.00
2023-10-23T18:45:56.295Z,2.60
2023-10-23T18:48:23.155Z,2.70
2023-10-23T18:50:59.208Z,2.40
2023-10-23T18:53:26.756Z,2.03
2023-10-23T18:55:54.539Z,2.10
2023-10-23T18:58:21.195Z,2.15
2023-10-23T19:00:47.714Z,2.10
2023-10-23T19:03:16.343Z,2.05
2023-10-23T19:05:43.613Z,2.30
2023-10-23T19:08:11.201Z,2.30
2023-10-23T19:10:41.071Z,2.38
2023-10-23T19:13:08.810Z,2.35
2023-10-23T19:15:35.745Z,2.42
2023-10-23T19:18:02.445Z,2.40
2023-10-23T19:20:29.424Z,2.10
2023-10-23T19:22:55.911Z,2.63
2023-10-23T19:25:22.860Z,2.78
2023-10-23T19:27:50.073Z,2.90
2023-10-23T19:30:16.869Z,2.60
2023-10-23T19:32:43.763Z,2.53
2023-10-23T19:35:12.654Z,2.70
2023-10-23T19:37:41.355Z,2.38
2023-10-23T19:40:08.553Z,2.30
2023-10-23T19:42:40.904Z,2.20
2023-10-23T19:45:09.222Z,2.80
2023-10-23T19:47:36.639Z,2.90
2023-10-23T19:50:04.848Z,2.80
2023-10-23T19:52:35.372Z,3.05
2023-10-23T19:55:06.110Z,2.45
2023-10-23T19:57:51.847Z,2.70
2023-10-23T20:00:18.591Z,2.38
2023-10-23T20:02:45.095Z,2.33
2023-10-23T20:05:11.696Z,2.50
2023-10-23T20:07:38.410Z,2.22
2023-10-23T20:10:06.375Z,2.20
2023-10-23T20:12:33.009Z,2.65
2023-10-23T20:14:59.459Z,2.50
2023-10-23T20:17:26.017Z,2.58
2023-10-23T20:19:52.916Z,2.58
2023-10-23T20:22:19.409Z,3.53
2023-10-23T20:24:46.214Z,3.90
2023-10-23T20:27:12.679Z,3.70
2023-10-23T20:29:39.470Z,4.05
2023-10-23T20:32:06.403Z,3.83
2023-10-23T20:34:32.984Z,3.72
2023-10-23T20:36:59.438Z,4.75
2023-10-23T20:39:26.061Z,4.72
2023-10-23T20:41:52.500Z,4.70
2023-10-23T20:44:18.931Z,5.18
2023-10-23T20:46:45.385Z,5.85
2023-10-23T20:49:11.916Z,5.40
2023-10-23T20:51:38.753Z,4.50
2023-10-23T20:54:05.784Z,5.13
2023-10-23T20:56:32.211Z,5.30
2023-10-23T20:59:00.703Z,5.13
2023-10-23T21:01:28.573Z,6.15
2023-10-23T21:03:55.641Z,5.72
2023-10-23T21:06:22.764Z,5.50
2023-10-23T21:08:49.240Z,5.22
2023-10-23T21:11:16.537Z,4.90
2023-10-23T21:13:57.322Z,4.75
2023-10-23T21:16:24.583Z,5.35
2023-10-23T21:18:51.350Z,5.38
2023-10-23T21:21:17.779Z,5.18
2023-10-23T21:23:44.231Z,5.00
2023-10-23T21:26:10.704Z,4.93
2023-10-23T21:28:37.366Z,4.80
2023-10-23T21:31:04.930Z,5.30
2023-10-23T21:33:31.702Z,5.68
2023-10-23T21:35:58.157Z,5.40
2023-10-23T21:38:24.650Z,5.15
2023-10-23T21:40:51.111Z,4.50
2023-10-23T21:43:18.161Z,3.88
2023-10-23T21:45:44.665Z,5.18
2023-10-23T21:48:11.935Z,4.72
2023-10-23T21:50:43.283Z,5.20
2023-10-23T21:53:11.172Z,4.63
2023-10-23T21:55:38.947Z,4.68
2023-10-23T21:58:05.764Z,4.63
2023-10-23T22:00:32.806Z,5.00
2023-10-23T22:03:01.774Z,4.55
2023-10-23T22:05:29.327Z,4.47
2023-10-23T22:07:56.691Z,4.40
2023-10-23T22:10:27.216Z,4.30
2023-10-23T22:12:55.216Z,4.13
2023-10-23T22:15:22.259Z,3.90
2023-10-23T22:17:48.955Z,4.40
2023-10-23T22:20:15.502Z,4.55
2023-10-23T22:22:41.961Z,4.30
2023-10-23T22:25:09.519Z,3.78
2023-10-23T22:27:36.029Z,4.75
2023-10-23T22:30:08.220Z,4.45
2023-10-23T22:32:35.491Z,4.30
2023-10-23T22:35:05.016Z,4.72
2023-10-23T22:38:00.452Z,3.80
2023-10-23T22:40:19.289Z,3.88
2023-10-23T22:42:45.953Z,4.00
2023-10-23T22:45:12.902Z,5.03
2023-10-23T22:47:39.405Z,5.47
2023-10-23T22:50:06.726Z,5.10
2023-10-23T22:52:33.541Z,5.35
2023-10-23T22:55:00.252Z,5.68
2023-10-23T22:57:27.619Z,5.35
2023-10-23T22:59:54.763Z,5.15
2023-10-23T23:02:21.680Z,5.20
2023-10-23T23:04:48.520Z,5.38
2023-10-23T23:07:15.361Z,5.45
2023-10-23T23:09:42.161Z,5.45
2023-10-23T23:12:09.319Z,5.57
2023-10-23T23:14:36.000Z,5.13
2023-10-23T23:17:04.282Z,5.28
2023-10-23T23:19:32.077Z,5.25
2023-10-23T23:22:08.968Z,5.40
2023-10-23T23:24:35.966Z,5.10
2023-10-23T23:27:02.524Z,4.65
2023-10-23T23:29:29.002Z,4.68
2023-10-23T23:31:55.697Z,5.05
2023-10-23T23:34:22.329Z,5.32
2023-10-23T23:36:48.780Z,5.80
2023-10-23T23:39:16.725Z,4.93
2023-10-23T23:41:43.557Z,5.07
2023-10-23T23:44:10.403Z,5.30
2023-10-23T23:46:36.919Z,5.00
2023-10-23T23:49:04.235Z,4.90
2023-10-23T23:51:30.717Z,4.78
2023-10-23T23:53:57.190Z,5.20
2023-10-23T23:56:24.010Z,4.97
2023-10-23T23:58:50.468Z,4.55
